createdAt,value
2022-12-31T00:02:16.241Z,6.50
2022-12-31T00:12:20.752Z,7.17
2022-12-31T00:22:23.821Z,10.40
2022-12-31T00:32:29.353Z,8.00
2022-12-31T00:42:32.394Z,7.90
2022-12-31T00:52:36.811Z,7.10
2022-12-31T01:02:39.980Z,5.57
2022-12-31T01:12:44.632Z,5.60
2022-12-31T01:22:47.704Z,4.73
2022-12-31T01:32:52.096Z,5.43
2022-12-31T01:42:56.323Z,3.93
2022-12-31T01:53:06.039Z,3.60
2022-12-31T02:03:09.311Z,2.57
2022-12-31T02:13:14.128Z,2.23
2022-12-31T02:23:56.834Z,2.10
2022-12-31T02:34:07.533Z,1.97
2022-12-31T02:44:23.199Z,1.90
2022-12-31T02:54:35.978Z,1.70
2022-12-31T03:04:39.218Z,1.73
2022-12-31T03:14:43.742Z,1.83
2022-12-31T03:25:04.283Z,1.67
2022-12-31T03:35:10.456Z,1.73
2022-12-31T03:45:14.434Z,3.03
2022-12-31T03:55:18.935Z,3.87
2022-12-31T04:05:23.028Z,3.93
2022-12-31T04:15:27.457Z,3.90
2022-12-31T04:25:30.452Z,3.73
2022-12-31T04:35:34.916Z,3.47
2022-12-31T04:45:38.200Z,3.47
2022-12-31T04:55:43.577Z,3.10
2022-12-31T05:05:46.635Z,3.00
2022-12-31T05:15:51.278Z,2.80
2022-12-31T05:25:54.524Z,3.73
2022-12-31T05:35:59.234Z,3.87
2022-12-31T05:46:02.871Z,3.60
2022-12-31T05:56:07.719Z,3.47
2022-12-31T06:06:10.767Z,3.70
2022-12-31T06:16:15.483Z,3.17
2022-12-31T06:26:18.564Z,3.80
2022-12-31T06:36:23.005Z,4.20
2022-12-31T06:46:26.092Z,3.80
2022-12-31T06:56:34.315Z,3.17
2022-12-31T07:06:44.863Z,3.10
2022-12-31T07:17:04.591Z,2.93
2022-12-31T07:27:22.360Z,2.73
2022-12-31T07:37:40.279Z,2.60
2022-12-31T07:47:43.870Z,2.87
2022-12-31T07:57:56.616Z,2.53
2022-12-31T08:08:08.251Z,2.70
2022-12-31T08:18:13.370Z,3.93
2022-12-31T08:28:21.551Z,3.10
2022-12-31T08:38:32.985Z,3.50
2022-12-31T08:48:41.308Z,3.50
2022-12-31T08:58:54.194Z,3.40
2022-12-31T09:09:04.627Z,3.40
2022-12-31T09:19:10.234Z,3.57
2022-12-31T09:29:25.537Z,3.10
2022-12-31T09:39:37.269Z,2.43
2022-12-31T09:50:13.757Z,3.97
2022-12-31T10:00:22.497Z,3.70
2022-12-31T10:10:31.699Z,3.90
2022-12-31T10:20:48.845Z,3.67
2022-12-31T10:31:02.803Z,4.37
2022-12-31T10:41:43.029Z,2.30
2022-12-31T10:52:14.371Z,3.10
2022-12-31T11:02:49.163Z,3.30
2022-12-31T11:13:39.918Z,3.00
2022-12-31T11:23:53.046Z,3.00
2022-12-31T11:34:13.241Z,2.83
2022-12-31T11:44:35.149Z,3.07
2022-12-31T11:55:07.835Z,3.33
2022-12-31T12:05:16.790Z,3.17
2022-12-31T12:15:23.961Z,2.13
2022-12-31T12:25:38.043Z,2.80
2022-12-31T12:35:49.715Z,2.80
2022-12-31T12:45:54.115Z,2.80
2022-12-31T12:56:07.361Z,2.55
2022-12-31T13:06:25.917Z,2.70
2022-12-31T13:16:39.085Z,2.75
2022-12-31T13:26:49.738Z,2.47
2022-12-31T13:36:58.410Z,2.63
2022-12-31T13:47:06.073Z,2.60
2022-12-31T13:57:19.532Z,2.80
2022-12-31T14:07:29.080Z,3.03
2022-12-31T14:17:45.493Z,3.70
2022-12-31T14:27:49.387Z,4.80
2022-12-31T14:38:00.202Z,5.10
2022-12-31T14:48:11.684Z,4.63
2022-12-31T14:58:28.159Z,3.73
2022-12-31T15:08:43.925Z,3.97
2022-12-31T15:19:12.124Z,3.83
2022-12-31T15:29:27.064Z,4.23
2022-12-31T15:39:43.477Z,5.30
2022-12-31T15:49:48.795Z,5.70
2022-12-31T15:59:59.849Z,5.10
2022-12-31T16:10:05.159Z,5.57
2022-12-31T16:20:25.286Z,4.40
2022-12-31T16:30:30.246Z,4.53
2022-12-31T16:40:34.688Z,5.67
2022-12-31T16:50:38.181Z,11.37
2022-12-31T17:00:42.928Z,11.40
2022-12-31T17:10:48.112Z,7.47
2022-12-31T17:20:55.361Z,11.73
2022-12-31T17:31:01.817Z,9.07
2022-12-31T17:41:24.389Z,14.30
2022-12-31T17:51:27.465Z,8.23
2022-12-31T18:01:31.938Z,11.70
2022-12-31T18:11:36.485Z,8.03
2022-12-31T18:21:41.360Z,9.67
2022-12-31T18:31:46.262Z,10.10
2022-12-31T18:41:50.696Z,12.37
2022-12-31T18:51:54.265Z,10.20
2022-12-31T19:01:58.766Z,11.07
2022-12-31T19:12:01.847Z,7.87
2022-12-31T19:22:06.279Z,11.97
2022-12-31T19:32:09.503Z,11.40
2022-12-31T19:42:16.998Z,13.77
2022-12-31T19:52:20.068Z,11.70
2022-12-31T20:02:24.811Z,13.43
2022-12-31T20:12:28.686Z,12.20
2022-12-31T20:22:33.084Z,19.37
2022-12-31T20:32:36.204Z,17.00
2022-12-31T20:42:40.791Z,16.70
2022-12-31T20:52:44.077Z,15.93
2022-12-31T21:02:57.610Z,20.90
2022-12-31T21:13:03.568Z,19.93
2022-12-31T21:23:07.963Z,18.77
2022-12-31T21:33:10.968Z,16.10
2022-12-31T21:43:16.282Z,18.50
2022-12-31T21:53:25.395Z,20.10
2022-12-31T22:03:32.547Z,20.80
2022-12-31T22:13:36.169Z,21.30
2022-12-31T22:23:41.412Z,27.43
2022-12-31T22:33:44.839Z,34.37
2022-12-31T22:43:50.878Z,23.07
2022-12-31T22:53:53.924Z,31.47
2022-12-31T23:03:58.767Z,38.33
2022-12-31T23:14:19.380Z,93.27
2022-12-31T23:24:26.579Z,120.13
2022-12-31T23:34:29.820Z,63.53
2022-12-31T23:44:34.275Z,36.47
2022-12-31T23:54:37.345Z,29.10
